Seastar — 9HAV9 — position and weather

sailwx.info

Track history (hours):
 
Tides and Currents Weather Stations Pressure Air Temp Water Temp Dewpoint Dewpoint Depression Visibility Wind Speed Wind Dir Waves Ship Positions

Seastar

Last reported at 2018-Jul-15 07:25 UTC. Time now 2018-Jul-16 02:35 UTC.
Position N 27°30' W 014°15'.

Length 250 m; draft 8 m.

Type: Tanker. MMSI: 256702000.

Date/timePositionNaut miles runAvg speedWind from/ knotsBaromVisibWave heightAir tempDewpointWater temp
2018-Jul-15 07:25N 27°30' W 014°15'1111.3
2018-Jul-15 06:25N 27°37' W 014°05'611.4
2018-Jul-15 05:52N 27°41' W 013°59'711.7
2018-Jul-15 05:17N 27°45' W 013°53'411.6
2018-Jul-15 04:54N 27°48' W 013°50'411.1
2018-Jul-15 04:30N 27°51' W 013°46'1510.8
2018-Jul-15 03:07N 28°02' W 013°35'210.9
2018-Jul-15 02:58N 28°04' W 013°34'510.7
2018-Jul-15 02:28N 28°08' W 013°30'510.3
2018-Jul-15 02:00N 28°12' W 013°27'  
2018-Jul-12 14:14N 35°58' W 005°35'2 7.9
2018-Jul-12 13:55N 35°59' W 005°33'4 9.1
2018-Jul-12 13:30N 36°00' W 005°28'5 9.8
2018-Jul-12 13:00N 36°03' W 005°24'4 8.5
2018-Jul-12 12:30N 36°07' W 005°23'0 0.2
2018-Jul-12 11:03N 36°08' W 005°22'0 0.1
2018-Jul-12 10:39N 36°08' W 005°22'0 0.2
2018-Jul-12 10:30N 36°08' W 005°22'224 5.6
2018-Jul-10 18:18N 37°18' W 000°57'510.1
2018-Jul-10 17:51N 37°21' W 000°53'510.1
2018-Jul-10 17:24N 37°24' W 000°49'410.0
2018-Jul-10 17:00N 37°26' W 000°45'1110.1
2018-Jul-10 15:57N 37°33' W 000°35'5 9.7
2018-Jul-10 15:26N 37°37' W 000°31'4 9.8
2018-Jul-10 15:00N 37°41' W 000°28'5 9.9
2018-Jul-10 14:30N 37°45' W 000°25'5 9.9
2018-Jul-10 13:58N 37°49' W 000°21'5 9.8
2018-Jul-10 13:29N 37°53' W 000°18'5 9.7
2018-Jul-10 13:00N 37°57' W 000°14'5 9.7
2018-Jul-10 12:31N 38°01' W 000°11'5 9.8
2018-Jul-10 12:00N 38°05' W 000°08'5 9.7
2018-Jul-10 11:29N 38°10' W 000°04'510.1
2018-Jul-10 11:00N 38°14' W 000°01'510.4
2018-Jul-10 10:30N 38°18' E 000°03'510.5
2018-Jul-10 10:00N 38°22' E 000°06'510.3
2018-Jul-10 09:30N 38°27' E 000°10'510.0
2018-Jul-10 09:00N 38°31' E 000°13'510.3
2018-Jul-10 08:30N 38°35' E 000°17'510.4
2018-Jul-10 07:59N 38°40' E 000°21'5 9.9
2018-Jul-10 07:30N 38°44' E 000°24'510.0
2018-Jul-10 07:00N 38°48' E 000°27'510.0
2018-Jul-10 06:30N 38°51' E 000°32'510.2
2018-Jul-10 06:00N 38°55' E 000°37'510.2
2018-Jul-10 05:30N 38°59' E 000°41'510.1
2018-Jul-10 05:00N 39°03' E 000°45'510.1
2018-Jul-10 04:31N 39°06' E 000°50'610.1
2018-Jul-10 03:57N 39°10' E 000°55'510.1
2018-Jul-10 03:30N 39°14' E 000°58'510.0
2018-Jul-10 03:00N 39°18' E 001°03'510.1
2018-Jul-10 02:30N 39°22' E 001°07'510.2
2018-Jul-10 02:00N 39°25' E 001°11'510.4
2018-Jul-10 01:30N 39°29' E 001°16'1010.6
2018-Jul-10 00:35N 39°37' E 001°24'111.0
2018-Jul-10 00:30N 39°37' E 001°25'510.7
2018-Jul-10 00:00N 39°41' E 001°30'610.7
2018-Jul-09 23:26N 39°46' E 001°35'610.8
2018-Jul-09 22:56N 39°50' E 001°39'4410.4
2018-Jul-09 18:43N 40°23' E 002°18'410.4
2018-Jul-09 18:18N 40°26' E 002°22'410.3
2018-Jul-09 17:57N 40°29' E 002°25'11 9.9
2018-Jul-09 16:49N 40°37' E 002°35'1 1.9
2018-Jul-09 16:28N 40°37' E 002°35'1 0.9
2018-Jul-09 15:38N 40°38' E 002°34'0 0.9
2018-Jul-09 15:31N 40°38' E 002°34'1 1.5
2018-Jul-09 14:59N 40°38' E 002°33'1 2.2
2018-Jul-09 14:30N 40°39' E 002°33'0 0.5
2018-Jul-09 14:00N 40°39' E 002°33'0 0.3
2018-Jul-09 13:31N 40°39' E 002°33'0 0.2
2018-Jul-09 13:01N 40°39' E 002°33'0 0.2
2018-Jul-09 12:30N 40°39' E 002°33'0 0.1
2018-Jul-09 12:00N 40°39' E 002°33'0 0.1
2018-Jul-09 11:31N 40°39' E 002°33'0 0.1
2018-Jul-09 10:24N 40°39' E 002°33'0 0.1
2018-Jul-09 06:36N 40°39' E 002°33'0 0.3
2018-Jul-09 06:28N 40°39' E 002°33'0 0.4
2018-Jul-09 05:58N 40°39' E 002°33'0 0.5
2018-Jul-09 05:26N 40°40' E 002°33'0 0.4
2018-Jul-09 05:00N 40°40' E 002°33'0 0.4
2018-Jul-09 04:30N 40°40' E 002°33'0 0.4
2018-Jul-09 04:00N 40°40' E 002°33'0 0.5
2018-Jul-09 03:28N 40°40' E 002°33'1 0.6
2018-Jul-09 01:19N 40°41' E 002°32'0 0.5
2018-Jul-09 01:00N 40°42' E 002°32'1 0.6
2018-Jul-08 23:35N 40°42' E 002°31'0 0.5
2018-Jul-08 23:27N 40°42' E 002°31'0 0.5
2018-Jul-08 23:01N 40°42' E 002°31'0 0.5
2018-Jul-08 22:29N 40°42' E 002°30'0 0.5
2018-Jul-08 21:40N 40°43' E 002°30'0 0.4
2018-Jul-08 21:30N 40°43' E 002°30'0 0.4
2018-Jul-08 21:01N 40°43' E 002°30'0 0.4
2018-Jul-08 20:31N 40°43' E 002°29'0 0.3
2018-Jul-08 19:46N 40°43' E 002°29'0 0.2
2018-Jul-08 18:23N 40°42' E 002°29'0 0.2
2018-Jul-08 18:00N 40°42' E 002°29'0 0.2
2018-Jul-08 17:30N 40°42' E 002°29'0 0.3
2018-Jul-08 17:00N 40°42' E 002°29'0 0.3
2018-Jul-08 16:30N 40°42' E 002°29'0 0.3
2018-Jul-08 16:00N 40°42' E 002°29'0 0.3
2018-Jul-08 14:55N 40°42' E 002°30'0 0.4
2018-Jul-08 14:30N 40°42' E 002°30'0 0.5
2018-Jul-08 14:00N 40°42' E 002°30'1 0.4
2018-Jul-08 10:33N 40°43' E 002°31'0 0.4
2018-Jul-08 10:27N 40°43' E 002°31'3 0.6
2018-Jul-08 04:47N 40°45' E 002°27'0 0.4
2018-Jul-08 04:30N 40°45' E 002°27'0 0.3
2018-Jul-08 03:25N 40°45' E 002°27'0 0.3
2018-Jul-08 02:42N 40°45' E 002°27'1 0.3
2018-Jul-07 23:33N 40°46' E 002°26'0 0.0
2018-Jul-07 23:23N 40°46' E 002°26'0 0.2
2018-Jul-07 22:36N 40°46' E 002°26'0 0.4
2018-Jul-07 22:30N 40°46' E 002°26'11 6.6
2018-Jul-07 20:49N 40°49' E 002°11'411.3
2018-Jul-07 20:29N 40°50' E 002°07'511.1
2018-Jul-07 20:01N 40°51' E 002°00'611.1
2018-Jul-07 19:28N 40°53' E 001°53'  
Track history (hours):
 
Tides and Currents Weather Stations Pressure Air Temp Water Temp Dewpoint Dewpoint Depression Visibility Wind Speed Wind Dir Waves Ship Positions

Seastar

Last reported at 2018-Jul-15 07:25 UTC. Time now 2018-Jul-16 02:35 UTC.
Position N 27°30' W 014°15'.

Length 250 m; draft 8 m.

Type: Tanker. MMSI: 256702000.

Date/timePositionNaut miles runAvg speedWind from/ knotsBaromVisibWave heightAir tempDewpointWater temp
2018-Jul-15 07:25N 27°30' W 014°15'1111.3
2018-Jul-15 06:25N 27°37' W 014°05'611.4
2018-Jul-15 05:52N 27°41' W 013°59'711.7
2018-Jul-15 05:17N 27°45' W 013°53'411.6
2018-Jul-15 04:54N 27°48' W 013°50'411.1
2018-Jul-15 04:30N 27°51' W 013°46'1510.8
2018-Jul-15 03:07N 28°02' W 013°35'210.9
2018-Jul-15 02:58N 28°04' W 013°34'510.7
2018-Jul-15 02:28N 28°08' W 013°30'510.3
2018-Jul-15 02:00N 28°12' W 013°27'  
2018-Jul-12 14:14N 35°58' W 005°35'2 7.9
2018-Jul-12 13:55N 35°59' W 005°33'4 9.1
2018-Jul-12 13:30N 36°00' W 005°28'5 9.8
2018-Jul-12 13:00N 36°03' W 005°24'4 8.5
2018-Jul-12 12:30N 36°07' W 005°23'0 0.2
2018-Jul-12 11:03N 36°08' W 005°22'0 0.1
2018-Jul-12 10:39N 36°08' W 005°22'0 0.2
2018-Jul-12 10:30N 36°08' W 005°22'224 5.6
2018-Jul-10 18:18N 37°18' W 000°57'510.1
2018-Jul-10 17:51N 37°21' W 000°53'510.1
2018-Jul-10 17:24N 37°24' W 000°49'410.0
2018-Jul-10 17:00N 37°26' W 000°45'1110.1
2018-Jul-10 15:57N 37°33' W 000°35'5 9.7
2018-Jul-10 15:26N 37°37' W 000°31'4 9.8
2018-Jul-10 15:00N 37°41' W 000°28'5 9.9
2018-Jul-10 14:30N 37°45' W 000°25'5 9.9
2018-Jul-10 13:58N 37°49' W 000°21'5 9.8
2018-Jul-10 13:29N 37°53' W 000°18'5 9.7
2018-Jul-10 13:00N 37°57' W 000°14'5 9.7
2018-Jul-10 12:31N 38°01' W 000°11'5 9.8
2018-Jul-10 12:00N 38°05' W 000°08'5 9.7
2018-Jul-10 11:29N 38°10' W 000°04'510.1
2018-Jul-10 11:00N 38°14' W 000°01'510.4
2018-Jul-10 10:30N 38°18' E 000°03'510.5
2018-Jul-10 10:00N 38°22' E 000°06'510.3
2018-Jul-10 09:30N 38°27' E 000°10'510.0
2018-Jul-10 09:00N 38°31' E 000°13'510.3
2018-Jul-10 08:30N 38°35' E 000°17'510.4
2018-Jul-10 07:59N 38°40' E 000°21'5 9.9
2018-Jul-10 07:30N 38°44' E 000°24'510.0
2018-Jul-10 07:00N 38°48' E 000°27'510.0
2018-Jul-10 06:30N 38°51' E 000°32'510.2
2018-Jul-10 06:00N 38°55' E 000°37'510.2
2018-Jul-10 05:30N 38°59' E 000°41'510.1
2018-Jul-10 05:00N 39°03' E 000°45'510.1
2018-Jul-10 04:31N 39°06' E 000°50'610.1
2018-Jul-10 03:57N 39°10' E 000°55'510.1
2018-Jul-10 03:30N 39°14' E 000°58'510.0
2018-Jul-10 03:00N 39°18' E 001°03'510.1
2018-Jul-10 02:30N 39°22' E 001°07'510.2
2018-Jul-10 02:00N 39°25' E 001°11'510.4
2018-Jul-10 01:30N 39°29' E 001°16'1010.6
2018-Jul-10 00:35N 39°37' E 001°24'111.0
2018-Jul-10 00:30N 39°37' E 001°25'510.7
2018-Jul-10 00:00N 39°41' E 001°30'610.7
2018-Jul-09 23:26N 39°46' E 001°35'610.8
2018-Jul-09 22:56N 39°50' E 001°39'4410.4
2018-Jul-09 18:43N 40°23' E 002°18'410.4
2018-Jul-09 18:18N 40°26' E 002°22'410.3
2018-Jul-09 17:57N 40°29' E 002°25'11 9.9
2018-Jul-09 16:49N 40°37' E 002°35'1 1.9
2018-Jul-09 16:28N 40°37' E 002°35'1 0.9
2018-Jul-09 15:38N 40°38' E 002°34'0 0.9
2018-Jul-09 15:31N 40°38' E 002°34'1 1.5
2018-Jul-09 14:59N 40°38' E 002°33'1 2.2
2018-Jul-09 14:30N 40°39' E 002°33'0 0.5
2018-Jul-09 14:00N 40°39' E 002°33'0 0.3
2018-Jul-09 13:31N 40°39' E 002°33'0 0.2
2018-Jul-09 13:01N 40°39' E 002°33'0 0.2
2018-Jul-09 12:30N 40°39' E 002°33'0 0.1
2018-Jul-09 12:00N 40°39' E 002°33'0 0.1
2018-Jul-09 11:31N 40°39' E 002°33'0 0.1
2018-Jul-09 10:24N 40°39' E 002°33'0 0.1
2018-Jul-09 06:36N 40°39' E 002°33'0 0.3
2018-Jul-09 06:28N 40°39' E 002°33'0 0.4
2018-Jul-09 05:58N 40°39' E 002°33'0 0.5
2018-Jul-09 05:26N 40°40' E 002°33'0 0.4
2018-Jul-09 05:00N 40°40' E 002°33'0 0.4
2018-Jul-09 04:30N 40°40' E 002°33'0 0.4
2018-Jul-09 04:00N 40°40' E 002°33'0 0.5
2018-Jul-09 03:28N 40°40' E 002°33'1 0.6
2018-Jul-09 01:19N 40°41' E 002°32'0 0.5
2018-Jul-09 01:00N 40°42' E 002°32'1 0.6
2018-Jul-08 23:35N 40°42' E 002°31'0 0.5
2018-Jul-08 23:27N 40°42' E 002°31'0 0.5
2018-Jul-08 23:01N 40°42' E 002°31'0 0.5
2018-Jul-08 22:29N 40°42' E 002°30'0 0.5
2018-Jul-08 21:40N 40°43' E 002°30'0 0.4
2018-Jul-08 21:30N 40°43' E 002°30'0 0.4
2018-Jul-08 21:01N 40°43' E 002°30'0 0.4
2018-Jul-08 20:31N 40°43' E 002°29'0 0.3
2018-Jul-08 19:46N 40°43' E 002°29'0 0.2
2018-Jul-08 18:23N 40°42' E 002°29'0 0.2
2018-Jul-08 18:00N 40°42' E 002°29'0 0.2
2018-Jul-08 17:30N 40°42' E 002°29'0 0.3
2018-Jul-08 17:00N 40°42' E 002°29'0 0.3
2018-Jul-08 16:30N 40°42' E 002°29'0 0.3
2018-Jul-08 16:00N 40°42' E 002°29'0 0.3
2018-Jul-08 14:55N 40°42' E 002°30'0 0.4
2018-Jul-08 14:30N 40°42' E 002°30'0 0.5
2018-Jul-08 14:00N 40°42' E 002°30'1 0.4
2018-Jul-08 10:33N 40°43' E 002°31'0 0.4
2018-Jul-08 10:27N 40°43' E 002°31'3 0.6
2018-Jul-08 04:47N 40°45' E 002°27'0 0.4
2018-Jul-08 04:30N 40°45' E 002°27'0 0.3
2018-Jul-08 03:25N 40°45' E 002°27'0 0.3
2018-Jul-08 02:42N 40°45' E 002°27'1 0.3
2018-Jul-07 23:33N 40°46' E 002°26'0 0.0
2018-Jul-07 23:23N 40°46' E 002°26'0 0.2
2018-Jul-07 22:36N 40°46' E 002°26'0 0.4
2018-Jul-07 22:30N 40°46' E 002°26'11 6.6
2018-Jul-07 20:49N 40°49' E 002°11'411.3
2018-Jul-07 20:29N 40°50' E 002°07'511.1
2018-Jul-07 20:01N 40°51' E 002°00'611.1
2018-Jul-07 19:28N 40°53' E 001°53'  

Dump ship's entire track history